Time;durP1;ratioP1;P1;durP2;ratioP2;P2;SDS_P1;SDS_P2;PMS_P1;PMS_P2;Temp;Humidity;BMP_temperature;BMP_pressure;BME280_temperature;BME280_humidity;BME280_pressure;Samples;Min_cycle;Max_cycle;Signal;HPM_P1;HPM_P2
2021/06/23 00:01:03;;;;;;;30.77;7.20;;;;;;;25.06;56.64;99920.59;4908547;29;20067;-59
2021/06/23 00:03:28;;;;;;;21.33;7.32;;;;;;;25.10;56.96;99919.34;4908784;29;20077;-59
2021/06/23 00:05:54;;;;;;;22.85;8.30;;;;;;;25.08;57.53;99923.94;4888524;29;20400;-60
2021/06/23 00:08:20;;;;;;;15.70;6.78;;;;;;;25.05;57.12;99917.09;4909577;29;20094;-59
2021/06/23 00:10:47;;;;;;;22.23;7.57;;;;;;;25.05;57.46;99919.75;4909378;29;20483;-60
2021/06/23 00:13:13;;;;;;;23.95;7.50;;;;;;;25.04;58.02;99917.22;4911649;29;20439;-62
2021/06/23 00:15:39;;;;;;;17.83;7.68;;;;;;;25.01;58.40;99914.88;4913825;29;20435;-61
2021/06/23 00:18:05;;;;;;;19.55;6.95;;;;;;;24.97;58.62;99908.97;4913325;29;20060;-61
2021/06/23 00:20:32;;;;;;;19.05;7.38;;;;;;;24.94;59.27;99911.91;4913737;29;20059;-61
2021/06/23 00:22:59;;;;;;;22.23;8.25;;;;;;;24.89;60.16;99914.16;4912793;29;20107;-59
2021/06/23 00:25:40;;;;;;;28.90;7.40;;;;;;;24.82;60.22;99920.94;4911785;29;20064;-60
2021/06/23 00:28:06;;;;;;;30.45;8.55;;;;;;;24.77;60.66;99915.19;4913616;29;20040;-60
2021/06/23 00:30:32;;;;;;;22.48;8.50;;;;;;;24.67;61.24;99906.38;4913961;29;20452;-61
2021/06/23 00:33:06;;;;;;;18.73;8.05;;;;;;;24.67;61.60;99919.66;4912844;29;20099;-60
2021/06/23 00:35:32;;;;;;;26.40;8.68;;;;;;;24.62;62.19;99912.09;4913156;29;20253;-60
2021/06/23 00:37:57;;;;;;;26.02;8.57;;;;;;;24.56;62.33;99914.44;4895915;29;20056;-60
2021/06/23 00:40:23;;;;;;;26.50;7.63;;;;;;;24.51;62.38;99919.34;4913625;29;20052;-61
2021/06/23 00:42:51;;;;;;;24.92;7.72;;;;;;;24.46;62.18;99922.41;4881275;29;20052;-59
2021/06/23 00:45:17;;;;;;;13.98;6.10;;;;;;;24.45;62.19;99918.91;4878506;29;20052;-60
2021/06/23 00:47:45;;;;;;;22.05;7.57;;;;;;;24.45;62.29;99920.72;4904665;29;20066;-59
2021/06/23 00:50:15;;;;;;;29.52;7.03;;;;;;;24.40;62.15;99917.63;4908813;29;20043;-60
2021/06/23 00:53:00;;;;;;;26.75;7.88;;;;;;;24.36;62.61;99917.06;4912194;29;20539;-59
2021/06/23 00:55:33;;;;;;;22.85;8.68;;;;;;;24.34;63.11;99920.81;4912101;29;20048;-60
2021/06/23 00:58:01;;;;;;;18.73;8.02;;;;;;;24.31;63.58;99916.63;4910237;29;20464;-56
2021/06/23 01:00:32;;;;;;;20.75;6.53;;;;;;;24.30;62.58;99922.06;4906137;29;20056;-59
2021/06/23 01:03:04;;;;;;;21.90;8.05;;;;;;;24.28;63.27;99921.38;4904808;29;20048;-59
2021/06/23 01:05:33;;;;;;;17.40;7.85;;;;;;;24.24;64.01;99920.78;4907544;29;20504;-59
2021/06/23 01:08:03;;;;;;;20.45;8.00;;;;;;;24.17;64.53;99916.13;5376374;23;20052;-59
2021/06/23 01:10:31;;;;;;;29.65;8.38;;;;;;;24.16;64.82;99919.75;4891988;29;20051;-60
2021/06/23 01:13:11;;;;;;;19.20;6.93;;;;;;;24.15;64.09;99931.34;4864372;29;20052;-59
2021/06/23 01:15:38;;;;;;;30.48;7.53;;;;;;;24.15;64.23;99926.03;4884599;29;20586;-62
2021/06/23 01:18:05;;;;;;;22.55;7.20;;;;;;;24.16;64.70;99923.25;4889834;29;20052;-59
2021/06/23 01:20:31;;;;;;;28.38;7.28;;;;;;;24.15;65.12;99929.53;4880527;29;20143;-60
2021/06/23 01:22:58;;;;;;;19.50;8.15;;;;;;;24.11;65.53;99928.13;4897831;29;20079;-59
2021/06/23 01:25:24;;;;;;;25.50;7.80;;;;;;;24.08;65.88;99937.19;4880647;29;20044;-59
2021/06/23 01:27:50;;;;;;;16.13;6.88;;;;;;;24.08;65.48;99936.34;4880727;29;20044;-60
2021/06/23 01:30:16;;;;;;;30.42;8.07;;;;;;;24.11;64.71;99930.78;4876056;29;20451;-59
2021/06/23 01:32:45;;;;;;;;;;;;;;;24.16;64.49;99939.19;4881235;29;20578;-59
2021/06/23 01:35:12;;;;;;;19.92;8.30;;;;;;;24.17;64.89;99938.25;4880409;29;19935;-59
2021/06/23 01:37:38;;;;;;;26.67;8.45;;;;;;;24.17;65.03;99932.94;4880595;29;20044;-59
2021/06/23 01:40:05;;;;;;;23.60;7.85;;;;;;;24.16;65.76;99939.19;4894021;29;20055;-59
2021/06/23 01:42:33;;;;;;;26.77;8.50;;;;;;;24.13;65.92;99935.97;4880970;29;20044;-60
2021/06/23 01:45:00;;;;;;;21.02;8.68;;;;;;;24.14;66.21;99940.28;4890200;29;20139;-59
2021/06/23 01:47:27;;;;;;;21.02;7.32;;;;;;;24.17;65.87;99937.38;4897063;29;20036;-60
2021/06/23 01:49:52;;;;;;;28.27;8.48;;;;;;;24.18;65.87;99947.88;4898041;29;20372;-60
2021/06/23 01:52:20;;;;;;;22.23;9.23;;;;;;;24.20;66.54;99942.44;4896551;29;20096;-60
2021/06/23 01:54:47;;;;;;;26.77;8.18;;;;;;;24.19;66.97;99940.75;4880497;29;20041;-60
2021/06/23 01:57:14;;;;;;;27.15;8.63;;;;;;;24.18;66.97;99939.91;4880736;29;20056;-60
2021/06/23 01:59:41;;;;;;;20.17;7.97;;;;;;;24.20;66.13;99945.94;4875712;29;20508;-59
2021/06/23 02:02:52;;;;;;;24.55;7.80;;;;;;;24.26;66.13;99945.41;4804788;29;20050;-59
2021/06/23 02:05:43;;;;;;;26.92;8.32;;;;;;;24.28;66.39;99943.47;4806573;29;20049;-61
2021/06/23 02:08:19;;;;;;;23.75;9.35;;;;;;;24.30;66.06;99943.31;4858653;29;20060;-61
2021/06/23 02:10:53;;;;;;;23.17;8.15;;;;;;;24.32;65.73;99954.66;4891444;29;20049;-58
2021/06/23 02:13:36;;;;;;;24.33;8.05;;;;;;;24.35;65.52;99946.41;4896352;29;20048;-62
2021/06/23 02:16:29;;;;;;;25.08;8.48;;;;;;;24.40;65.04;99954.84;4892928;29;20056;-60
2021/06/23 02:19:03;;;;;;;24.67;8.07;;;;;;;24.42;64.42;99953.75;4894712;29;20084;-60
2021/06/23 02:21:46;;;;;;;21.73;8.57;;;;;;;24.45;64.89;99956.13;4895522;29;20045;-61
2021/06/23 02:24:12;;;;;;;33.13;10.07;;;;;;;24.49;64.72;99956.72;4893885;29;20048;-59
2021/06/23 02:26:40;;;;;;;29.75;8.60;;;;;;;24.51;64.18;99957.41;4895477;29;20494;-62
2021/06/23 02:29:07;;;;;;;24.63;8.52;;;;;;;24.58;63.79;99957.72;4896148;29;20068;-61
2021/06/23 02:31:36;;;;;;;23.23;7.47;;;;;;;24.62;63.34;99953.78;4895736;29;20467;-62
2021/06/23 02:34:07;;;;;;;27.35;9.70;;;;;;;24.67;63.39;99954.22;4878507;29;20131;-62
2021/06/23 02:36:46;;;;;;;28.77;8.63;;;;;;;24.70;62.91;99952.16;4881504;29;20052;-62
2021/06/23 02:39:12;;;;;;;32.15;9.20;;;;;;;24.74;62.52;99955.38;4894807;29;20040;-61
2021/06/23 02:41:42;;;;;;;25.20;10.45;;;;;;;24.76;62.74;99951.59;4869310;29;20045;-62
2021/06/23 02:44:08;;;;;;;32.30;10.60;;;;;;;24.80;62.98;99954.84;4891136;29;20088;-62
2021/06/23 02:46:34;;;;;;;28.10;9.95;;;;;;;24.83;62.71;99951.91;4896730;29;20087;-61
2021/06/23 02:49:19;;;;;;;25.70;9.75;;;;;;;24.87;62.44;99951.50;4878208;29;20045;-59
2021/06/23 02:51:45;;;;;;;29.92;10.05;;;;;;;24.92;62.11;99953.75;4889492;29;20412;-62
2021/06/23 02:54:11;;;;;;;25.50;10.77;;;;;;;24.95;61.56;99955.31;4895912;29;20056;-61
2021/06/23 02:56:50;;;;;;;21.17;9.75;;;;;;;25.00;61.61;99953.94;4895070;29;20139;-60
2021/06/23 02:59:18;;;;;;;27.40;9.70;;;;;;;25.03;62.12;99960.78;4891356;29;20056;-60
2021/06/23 03:01:46;;;;;;;22.35;8.40;;;;;;;25.04;62.03;99962.47;4890836;29;20052;-62
2021/06/23 03:04:19;;;;;;;22.65;8.50;;;;;;;25.06;62.01;99956.03;4887735;29;20107;-61
2021/06/23 03:07:10;;;;;;;21.20;9.05;;;;;;;25.09;61.76;99955.75;4895428;29;20060;-60
2021/06/23 03:09:39;;;;;;;25.45;8.60;;;;;;;25.12;61.71;99963.44;4874687;29;20072;-62
2021/06/23 03:12:21;;;;;;;28.35;9.95;;;;;;;25.16;61.36;99961.38;4874402;29;20045;-60
2021/06/23 03:15:06;;;;;;;40.13;10.80;;;;;;;25.21;61.23;99959.97;4891358;29;20480;-61
2021/06/23 03:20:28;;;;;;;17.98;7.60;;;;;;;25.32;59.48;99966.97;4843541;27;20101;-60
2021/06/23 03:22:53;;;;;;;18.23;8.13;;;;;;;25.37;59.49;99970.06;4898560;29;20072;-59
2021/06/23 03:25:21;;;;;;;24.67;7.40;;;;;;;25.42;59.24;99974.97;4891679;29;20055;-59
2021/06/23 03:27:57;;;;;;;21.80;7.70;;;;;;;25.45;58.95;99969.34;4905190;29;20052;-55
2021/06/23 03:30:26;;;;;;;22.23;7.50;;;;;;;25.49;58.76;99963.59;4909605;29;20095;-60
2021/06/23 03:32:52;;;;;;;19.95;8.05;;;;;;;25.54;59.12;99969.34;4911815;29;20044;-60
2021/06/23 03:35:20;;;;;;;18.25;7.70;;;;;;;25.56;59.21;99964.75;4896709;29;20188;-58
2021/06/23 03:37:51;;;;;;;;;;;;;;;25.58;58.97;99964.63;4898275;29;20055;-60
2021/06/23 03:40:19;;;;;;;23.15;8.15;;;;;;;25.62;58.74;99966.88;5379718;23;19946;-60
2021/06/23 03:42:45;;;;;;;24.95;7.88;;;;;;;25.66;58.76;99962.09;4893044;29;20036;-61
2021/06/23 03:45:13;;;;;;;17.05;7.07;;;;;;;25.70;58.05;99958.16;4912126;29;20036;-60
2021/06/23 03:47:40;;;;;;;20.58;7.78;;;;;;;25.76;57.60;99970.06;4914158;29;20519;-62
2021/06/23 03:50:11;;;;;;;14.98;6.65;;;;;;;25.80;56.90;99948.34;4895531;29;20681;-61
2021/06/23 03:52:38;;;;;;;15.13;6.55;;;;;;;25.83;56.61;99956.03;4909306;29;20062;-61
2021/06/23 03:55:09;;;;;;;18.40;6.97;;;;;;;25.88;56.45;99952.94;4892235;29;20056;-58
2021/06/23 03:57:38;;;;;;;18.08;7.47;;;;;;;25.91;56.73;99947.34;4891893;29;20052;-60
2021/06/23 04:00:06;;;;;;;21.38;7.45;;;;;;;25.95;56.10;99954.06;4905629;29;20068;-58
2021/06/23 04:02:34;;;;;;;18.80;6.83;;;;;;;26.00;56.31;99951.78;4909306;29;20067;-60
2021/06/23 04:05:00;;;;;;;19.70;6.13;;;;;;;26.03;56.66;99957.66;4892878;29;20327;-60
2021/06/23 04:07:34;;;;;;;20.13;7.60;;;;;;;26.08;56.84;99966.06;4893324;29;20100;-61
2021/06/23 04:10:00;;;;;;;16.88;5.90;;;;;;;26.11;55.92;99962.28;4890819;29;20471;-59
2021/06/23 04:12:35;;;;;;;15.57;6.30;;;;;;;26.13;56.04;99966.47;4909609;29;20051;-59
2021/06/23 04:15:01;;;;;;;18.60;6.60;;;;;;;26.19;55.89;99970.38;4909783;29;20131;-59
2021/06/23 04:17:27;;;;;;;19.92;6.20;;;;;;;26.23;55.03;99966.47;4908830;29;20147;-59
2021/06/23 04:19:53;;;;;;;17.85;6.28;;;;;;;26.28;54.87;99964.22;4892478;29;20068;-58
2021/06/23 04:22:38;;;;;;;12.27;5.93;;;;;;;26.35;55.03;99961.81;4912449;29;20044;-58
2021/06/23 04:25:10;;;;;;;22.08;7.40;;;;;;;26.41;55.13;99967.41;4895454;29;20139;-60
2021/06/23 04:27:37;;;;;;;20.17;6.50;;;;;;;26.50;54.64;99965.66;4890241;29;20132;-58
2021/06/23 04:30:08;;;;;;;13.82;6.07;;;;;;;26.61;54.05;99965.47;4892519;29;20037;-60
2021/06/23 04:32:35;;;;;;;13.38;5.00;;;;;;;26.71;52.07;99966.25;4905991;29;20044;-60
2021/06/23 04:35:12;;;;;;;17.08;6.63;;;;;;;26.83;52.67;99966.91;4903789;29;20067;-58
2021/06/23 04:37:41;;;;;;;24.05;9.07;;;;;;;26.90;52.78;99968.84;4888682;29;20154;-56
2021/06/23 04:40:08;;;;;;;;;;;;;;;26.93;52.96;99978.41;4903087;29;20107;-56
2021/06/23 04:42:35;;;;;;;16.45;6.22;;;;;;;26.96;53.41;99962.06;4893170;29;20065;-58
2021/06/23 04:45:07;;;;;;;13.48;7.10;;;;;;;27.02;52.32;99977.47;4886077;29;20039;-58
2021/06/23 04:47:35;;;;;;;15.48;5.65;;;;;;;27.07;52.24;99977.03;4894734;29;20080;-59
2021/06/23 04:50:07;;;;;;;15.73;5.75;;;;;;;27.10;51.93;99971.41;4883178;29;20048;-57
2021/06/23 04:52:51;;;;;;;;;;;;;;;27.16;51.90;99968.13;4907741;29;20075;-56
2021/06/23 04:55:17;;;;;;;18.48;5.85;;;;;;;27.23;51.40;99967.38;4911125;29;20429;-58
2021/06/23 04:57:44;;;;;;;15.05;3.97;;;;;;;27.28;48.85;99964.22;4883801;29;20070;-58
2021/06/23 05:00:11;;;;;;;15.27;5.53;;;;;;;27.33;50.98;99967.28;4878434;29;20048;-58
2021/06/23 05:02:37;;;;;;;14.82;5.15;;;;;;;27.42;50.21;99959.19;4903449;29;20047;-60
2021/06/23 05:05:04;;;;;;;12.63;5.57;;;;;;;27.48;50.11;99970.28;4907269;29;20044;-59
2021/06/23 05:07:30;;;;;;;11.90;5.25;;;;;;;27.52;48.76;99963.66;4903787;29;20048;-59
2021/06/23 05:09:56;;;;;;;12.90;6.40;;;;;;;27.54;49.82;99958.97;4897047;29;20047;-61
2021/06/23 05:12:22;;;;;;;12.98;5.05;;;;;;;27.60;51.62;99969.06;4905602;29;20087;-58
2021/06/23 05:14:48;;;;;;;14.15;4.72;;;;;;;27.56;51.07;99959.69;4900410;29;20064;-54
2021/06/23 05:17:14;;;;;;;9.13;4.20;;;;;;;27.64;48.01;99973.09;4904336;29;20123;-54
2021/06/23 05:19:40;;;;;;;8.40;4.35;;;;;;;27.70;47.73;99976.00;4905658;29;20100;-52
2021/06/23 05:22:09;;;;;;;13.68;4.63;;;;;;;27.75;49.21;99972.84;4906055;29;20052;-51
2021/06/23 05:24:38;;;;;;;16.20;4.97;;;;;;;27.80;48.45;99983.91;4893063;29;20043;-53
2021/06/23 05:27:04;;;;;;;15.50;4.97;;;;;;;27.87;49.90;99976.97;4896121;29;20132;-53
2021/06/23 05:29:29;;;;;;;15.05;5.30;;;;;;;27.95;49.65;99986.88;4896522;29;20048;-54
2021/06/23 05:31:55;;;;;;;17.85;5.47;;;;;;;28.01;48.91;99973.72;4903716;29;20036;-49
2021/06/23 05:34:21;;;;;;;13.90;4.93;;;;;;;28.10;47.59;99972.78;4911575;29;20047;-49
2021/06/23 05:36:46;;;;;;;11.35;4.38;;;;;;;28.19;46.67;99973.69;4909244;29;20082;-52
2021/06/23 05:42:15;;;;;;;9.90;4.32;;;;;;;28.36;46.95;99980.81;4973716;24;20504;-53
2021/06/23 05:44:40;;;;;;;9.85;3.75;;;;;;;28.44;47.01;99975.50;4811520;29;20046;-54
2021/06/23 05:47:06;;;;;;;13.00;4.18;;;;;;;28.53;46.82;99971.00;4831885;29;20042;-57
2021/06/23 05:49:32;;;;;;;7.40;3.03;;;;;;;28.62;45.45;99972.75;4838110;29;20129;-52
2021/06/23 05:51:59;;;;;;;14.18;4.68;;;;;;;28.70;46.63;99975.44;4828907;29;20164;-54
2021/06/23 05:54:24;;;;;;;7.60;3.83;;;;;;;28.82;46.14;99976.88;4810309;29;20417;-54
2021/06/23 05:56:50;;;;;;;8.73;4.10;;;;;;;28.90;45.60;99970.69;4822633;29;20058;-50
2021/06/23 05:59:16;;;;;;;17.48;5.93;;;;;;;28.99;45.52;99973.25;4824842;29;20043;-58
2021/06/23 06:01:44;;;;;;;8.65;3.92;;;;;;;29.12;45.63;99980.78;4807511;29;20141;-60
2021/06/23 06:04:09;;;;;;;10.60;5.65;;;;;;;29.22;45.04;99969.91;4814415;29;20615;-60
2021/06/23 06:06:35;;;;;;;9.38;3.72;;;;;;;29.32;44.17;99968.78;4832687;29;20061;-60
2021/06/23 06:09:02;;;;;;;11.18;3.88;;;;;;;29.43;44.12;99967.63;4810973;29;20115;-56
2021/06/23 06:11:28;;;;;;;6.93;2.97;;;;;;;29.54;43.97;99971.81;4818553;29;20038;-58
2021/06/23 06:13:54;;;;;;;5.28;2.20;;;;;;;29.66;43.02;99968.66;4818830;29;20122;-58
2021/06/23 06:16:19;;;;;;;8.60;3.00;;;;;;;29.77;42.76;99964.81;4830148;29;20478;-58
2021/06/23 06:18:46;;;;;;;10.45;2.95;;;;;;;29.88;42.59;99962.63;4805042;29;20080;-59
2021/06/23 06:21:12;;;;;;;7.35;2.92;;;;;;;30.01;42.57;99967.47;4813926;29;20050;-61
2021/06/23 06:23:38;;;;;;;6.22;2.55;;;;;;;30.11;41.61;99956.56;4827249;29;20042;-60
2021/06/23 06:26:04;;;;;;;4.72;2.78;;;;;;;30.24;40.74;99954.19;4817141;29;20042;-58
2021/06/23 06:28:29;;;;;;;7.65;3.00;;;;;;;30.38;40.77;99957.97;4815043;29;20047;-60
2021/06/23 06:30:55;;;;;;;7.53;3.25;;;;;;;30.53;40.89;99967.84;4810078;29;20694;-61
2021/06/23 06:33:21;;;;;;;4.93;2.50;;;;;;;30.70;40.08;99963.25;4811828;29;20046;-59
2021/06/23 06:35:46;;;;;;;8.25;3.08;;;;;;;30.89;39.71;99961.97;4817627;29;20042;-59
2021/06/23 06:38:12;;;;;;;5.80;2.75;;;;;;;31.01;39.56;99968.63;4823190;29;20100;-60
2021/06/23 06:40:39;;;;;;;5.68;2.97;;;;;;;31.22;39.17;99968.88;4820372;29;20057;-58
2021/06/23 06:43:05;;;;;;;11.82;3.15;;;;;;;31.60;38.48;99974.34;4819700;29;20478;-62
2021/06/23 06:45:31;;;;;;;10.00;2.80;;;;;;;32.16;35.34;99975.66;4831491;29;20054;-62
2021/06/23 06:47:57;;;;;;;4.57;2.05;;;;;;;32.93;35.82;99976.09;4828586;29;20461;-61
2021/06/23 06:50:22;;;;;;;6.35;2.60;;;;;;;33.80;32.81;99966.88;4826910;29;20075;-63
2021/06/23 06:52:49;;;;;;;7.63;2.80;;;;;;;34.70;31.46;99980.34;4821163;29;20054;-64
2021/06/23 06:55:20;;;;;;;5.78;2.67;;;;;;;35.53;30.24;99973.75;4824924;29;20057;-63
2021/06/23 06:57:50;;;;;;;5.90;2.63;;;;;;;36.39;29.36;99974.53;4821310;29;20080;-62
2021/06/23 07:00:17;;;;;;;7.43;2.30;;;;;;;37.33;27.24;99985.63;4822296;29;20042;-60
2021/06/23 07:02:42;;;;;;;4.10;2.17;;;;;;;38.28;27.31;99977.34;4816684;29;20050;-58
2021/06/23 07:05:08;;;;;;;7.45;2.55;;;;;;;39.13;25.72;99980.94;4819279;29;20054;-63
2021/06/23 07:07:34;;;;;;;7.57;4.32;;;;;;;39.93;25.33;99987.69;4818444;29;20631;-65
2021/06/23 07:10:00;;;;;;;6.63;3.17;;;;;;;40.64;23.85;99989.31;4838072;29;20141;-66
2021/06/23 07:12:26;;;;;;;6.60;3.47;;;;;;;41.36;23.48;99982.28;4823271;29;20077;-63
2021/06/23 07:14:52;;;;;;;6.13;3.40;;;;;;;41.94;22.93;99985.72;4815422;29;20046;-62
2021/06/23 07:17:18;;;;;;;11.20;4.10;;;;;;;42.46;22.05;99988.97;4813145;29;20118;-61
2021/06/23 07:19:43;;;;;;;16.58;4.07;;;;;;;42.95;21.54;99990.69;4815201;29;20041;-59
2021/06/23 07:22:09;;;;;;;5.93;4.18;;;;;;;43.60;21.11;99988.91;4814718;29;20724;-63
2021/06/23 07:24:35;;;;;;;16.35;3.75;;;;;;;44.03;20.80;99988.69;4834136;29;20046;-59
2021/06/23 07:27:01;;;;;;;4.75;3.20;;;;;;;44.27;19.12;99998.22;4816163;29;20830;-62
2021/06/23 07:29:27;;;;;;;9.10;3.50;;;;;;;44.45;18.53;99994.19;4819335;29;20541;-57
2021/06/23 07:37:08;;;;;;;7.20;3.13;;;;;;;44.71;18.51;99993.22;4793546;29;20095;-59
2021/06/23 07:39:36;;;;;;;7.17;3.50;;;;;;;45.06;17.96;100006.28;4819547;29;20129;-59
2021/06/23 07:42:03;;;;;;;8.45;3.78;;;;;;;45.48;17.91;100005.25;4810953;29;20062;-60
2021/06/23 07:44:41;;;;;;;14.25;5.30;;;;;;;45.78;17.68;100002.50;4813522;29;20081;-60
2021/06/23 07:47:10;;;;;;;11.25;6.63;;;;;;;46.00;17.86;100004.97;4813768;29;20050;-57
2021/06/23 07:49:39;;;;;;;11.32;4.20;;;;;;;46.19;17.70;100005.22;4810117;29;20906;-60
2021/06/23 07:53:09;;;;;;;6.25;4.07;;;;;;;46.35;17.43;99999.41;4806419;29;20038;-58
2021/06/23 07:55:07;;;;;;;11.82;4.03;;;;;;;46.64;17.00;100002.34;4800726;29;20062;-55
2021/06/23 08:08:19;;;;;;;9.30;5.18;;;;;;;47.73;16.47;100014.09;4812937;29;20042;-58
2021/06/23 08:10:49;;;;;;;11.98;5.55;;;;;;;47.76;16.01;100010.75;4821280;29;20046;-59
2021/06/23 08:13:16;;;;;;;10.32;5.30;;;;;;;47.86;15.78;100012.59;4813136;29;20403;-57
2021/06/23 08:15:45;;;;;;;8.18;4.72;;;;;;;47.92;16.04;100016.94;4827674;29;20141;-58
2021/06/23 08:18:12;;;;;;;12.77;5.10;;;;;;;47.93;15.96;100016.66;4814496;29;20133;-56
2021/06/23 08:20:38;;;;;;;13.18;5.22;;;;;;;47.90;15.78;100016.41;4814464;29;20065;-54
2021/06/23 08:23:04;;;;;;;9.00;5.05;;;;;;;47.93;15.83;100019.44;4813163;29;20046;-56
2021/06/23 08:25:30;;;;;;;8.38;4.90;;;;;;;47.80;15.61;100017.31;4821219;29;20058;-57
2021/06/23 08:27:56;;;;;;;9.85;5.18;;;;;;;47.79;15.69;100009.38;4819299;29;20423;-57
2021/06/23 08:30:22;;;;;;;11.50;4.57;;;;;;;47.60;15.73;100015.56;4818138;29;20565;-58
2021/06/23 08:35:21;;;;;;;7.53;4.85;;;;;;;48.69;15.69;100013.06;4805626;29;20134;-60
2021/06/23 08:37:48;;;;;;;10.85;5.07;;;;;;;48.95;14.89;100010.00;4813741;29;20668;-59
2021/06/23 08:40:14;;;;;;;13.48;6.38;;;;;;;49.05;15.54;100005.16;4820138;29;20151;-59
2021/06/23 08:42:41;;;;;;;9.85;7.00;;;;;;;49.11;14.91;100006.75;4803061;29;20042;-62
2021/06/23 08:45:08;;;;;;;10.48;6.40;;;;;;;49.21;14.92;100009.34;4816909;29;20078;-60
2021/06/23 08:47:45;;;;;;;12.75;7.35;;;;;;;49.59;14.49;100001.84;4817906;29;20046;-61
2021/06/23 08:50:13;;;;;;;9.05;6.13;;;;;;;49.65;14.51;99999.81;4819370;29;20054;-59
2021/06/23 08:52:39;;;;;;;12.93;6.50;;;;;;;49.83;15.24;99998.16;4801814;29;20413;-61
2021/06/23 08:55:05;;;;;;;14.77;6.93;;;;;;;50.02;14.59;99991.41;4820668;29;20042;-61
2021/06/23 08:57:33;;;;;;;17.30;6.40;;;;;;;50.03;14.60;99992.25;4821011;29;20086;-61
2021/06/23 09:00:00;;;;;;;10.90;5.90;;;;;;;50.03;14.28;99998.59;4818975;29;20368;-61
2021/06/23 09:02:28;;;;;;;14.07;7.15;;;;;;;49.96;14.11;99994.59;4820626;29;20046;-60
2021/06/23 09:05:06;;;;;;;10.95;5.82;;;;;;;50.04;14.11;100005.75;4818252;29;20038;-61
2021/06/23 09:07:57;;;;;;;10.65;6.65;;;;;;;50.04;14.33;99997.44;4820377;29;20501;-62
2021/06/23 09:10:23;;;;;;;9.18;5.95;;;;;;;49.65;14.57;100008.13;4808860;29;20097;-62
2021/06/23 09:13:06;;;;;;;12.68;6.55;;;;;;;49.84;14.57;99997.84;4819921;29;20042;-62
2021/06/23 09:15:52;;;;;;;10.25;6.88;;;;;;;49.79;13.69;99991.56;4816811;29;20520;-61
2021/06/23 09:18:34;;;;;;;7.30;6.43;;;;;;;49.74;14.37;99995.22;4820509;29;20050;-60
2021/06/23 09:21:04;;;;;;;11.13;6.38;;;;;;;49.97;14.22;99982.41;4809703;29;20091;-61
2021/06/23 09:23:52;;;;;;;8.88;6.80;;;;;;;50.07;14.64;99990.50;4818746;29;20039;-60
2021/06/23 09:26:20;;;;;;;14.27;6.97;;;;;;;49.90;13.78;99984.72;4802879;29;20050;-61
2021/06/23 09:29:08;;;;;;;8.38;6.57;;;;;;;49.72;14.27;99980.91;4822895;29;20038;-60
2021/06/23 09:32:02;;;;;;;18.52;7.15;;;;;;;49.90;14.19;99976.44;4821699;29;20046;-61
2021/06/23 09:34:36;;;;;;;11.40;7.00;;;;;;;50.13;13.71;99980.19;4812075;29;20117;-59
2021/06/23 09:37:31;;;;;;;9.40;7.20;;;;;;;50.08;14.70;99974.72;4792042;29;20058;-60
2021/06/23 09:40:10;;;;;;;13.27;6.97;;;;;;;50.25;14.28;99973.00;4821080;29;20057;-61
2021/06/23 09:42:43;;;;;;;13.57;7.28;;;;;;;50.16;14.33;99965.72;4823422;29;20042;-60
2021/06/23 09:45:11;;;;;;;14.43;7.40;;;;;;;49.92;13.96;99966.72;4821401;29;20061;-60
2021/06/23 09:47:38;;;;;;;12.88;9.43;;;;;;;49.85;14.66;99963.53;4822487;29;20206;-60
2021/06/23 09:50:06;;;;;;;13.20;7.45;;;;;;;49.89;14.25;99963.72;4823295;29;20043;-60
2021/06/23 09:52:34;;;;;;;11.65;7.15;;;;;;;49.65;14.22;99958.34;4805518;29;20050;-60
2021/06/23 09:55:01;;;;;;;12.35;7.20;;;;;;;49.56;15.08;99949.13;5304336;23;20039;-60
2021/06/23 09:57:28;;;;;;;13.60;7.20;;;;;;;49.84;14.67;99936.16;4822181;29;20053;-59
2021/06/23 10:00:09;;;;;;;16.23;11.53;;;;;;;50.26;14.88;99946.13;4840618;29;20194;-60
2021/06/23 10:02:38;;;;;;;12.45;9.40;;;;;;;50.42;14.76;99944.69;4841604;29;20572;-61
2021/06/23 10:05:13;;;;;;;18.57;7.80;;;;;;;50.41;14.62;99945.81;4841326;29;20049;-59
2021/06/23 10:07:49;;;;;;;13.10;10.05;;;;;;;50.54;14.91;99944.19;4832294;29;20050;-62
2021/06/23 10:10:16;;;;;;;;;;;;;;;50.68;14.73;99948.56;4837184;29;20056;-60
2021/06/23 10:12:43;;;;;;;10.38;8.40;;;;;;;50.68;14.03;99943.03;4836518;29;20003;-61
2021/06/23 10:15:09;;;;;;;;;;;;;;;50.65;14.39;99945.59;4820646;29;20038;-61
2021/06/23 10:17:37;;;;;;;15.40;8.45;;;;;;;50.63;13.76;99940.38;4833131;29;20495;-61
2021/06/23 10:20:03;;;;;;;16.02;7.75;;;;;;;50.61;14.07;99939.88;4840434;29;20077;-61
2021/06/23 10:22:31;;;;;;;17.15;8.55;;;;;;;50.48;13.89;99935.19;4839199;29;20057;-62
2021/06/23 10:25:04;;;;;;;14.82;8.13;;;;;;;50.44;14.35;99934.16;4816782;29;20435;-60
2021/06/23 10:27:34;;;;;;;19.15;9.07;;;;;;;50.35;14.27;99936.81;4830736;29;20046;-62
2021/06/23 10:30:00;;;;;;;14.52;8.98;;;;;;;50.34;14.50;99935.19;4831447;29;20038;-58
2021/06/23 10:32:26;;;;;;;;;;;;;;;50.15;14.46;99936.44;4831103;29;20470;-59
2021/06/23 10:34:55;;;;;;;19.70;8.88;;;;;;;50.03;14.54;99934.97;4829560;29;19924;-61
2021/06/23 10:37:21;;;;;;;12.95;8.40;;;;;;;50.01;14.90;99936.38;4828550;29;20046;-60
2021/06/23 10:39:48;;;;;;;11.88;8.07;;;;;;;49.76;14.75;99925.81;4809375;29;20050;-61
2021/06/23 10:42:14;;;;;;;14.00;8.50;;;;;;;49.29;14.71;99927.72;4813165;29;20080;-59
2021/06/23 10:44:44;;;;;;;15.97;8.50;;;;;;;49.53;14.75;99928.41;4814079;29;20141;-60
2021/06/23 10:47:39;;;;;;;15.32;8.73;;;;;;;49.30;14.75;99923.84;4827349;29;20416;-61
2021/06/23 10:50:28;;;;;;;10.60;8.57;;;;;;;49.18;14.72;99927.06;4829987;29;20045;-64
2021/06/23 10:52:53;;;;;;;16.02;8.73;;;;;;;49.27;14.90;99929.97;4816960;29;20072;-63
2021/06/23 10:58:17;;;;;;;14.88;8.63;;;;;;;49.78;14.93;99929.91;5036436;23;20765;-60
2021/06/23 11:00:46;;;;;;;16.27;10.23;;;;;;;50.21;15.22;99916.63;4804244;29;20137;-61
2021/06/23 11:03:17;;;;;;;16.63;9.88;;;;;;;50.33;14.52;99908.63;4828731;29;20065;-61
2021/06/23 11:05:50;;;;;;;11.07;9.88;;;;;;;50.27;15.16;99920.09;4826158;29;20078;-60
2021/06/23 11:08:26;;;;;;;13.82;9.40;;;;;;;50.25;14.63;99912.09;4829575;29;20048;-61
2021/06/23 11:10:52;;;;;;;13.40;9.75;;;;;;;50.51;14.68;99906.06;4811912;29;20413;-62
2021/06/23 11:13:20;;;;;;;12.13;10.30;;;;;;;50.94;14.98;99903.66;4824264;29;20038;-60
2021/06/23 11:15:49;;;;;;;14.82;11.98;;;;;;;51.17;14.76;99903.41;4827804;29;20104;-60
2021/06/23 11:18:23;;;;;;;18.20;10.82;;;;;;;51.26;14.12;99900.66;4820308;29;20145;-60
2021/06/23 11:20:53;;;;;;;13.57;9.88;;;;;;;51.35;14.09;99901.53;4819019;29;20043;-60
2021/06/23 11:23:51;;;;;;;14.63;11.85;;;;;;;51.43;14.23;99898.00;4823718;29;20130;-62
2021/06/23 11:26:22;;;;;;;15.73;10.20;;;;;;;51.45;13.62;99893.00;4818863;29;20180;-60
2021/06/23 11:28:52;;;;;;;13.40;9.98;;;;;;;51.38;14.28;99886.22;4823009;29;20386;-60
2021/06/23 11:31:19;;;;;;;17.40;10.27;;;;;;;51.11;13.73;99889.94;4818979;29;20082;-61
2021/06/23 11:33:46;;;;;;;12.98;9.77;;;;;;;50.76;14.09;99880.53;4817813;29;20125;-60
2021/06/23 11:36:15;;;;;;;13.75;11.48;;;;;;;50.84;14.39;99886.16;4819327;29;20059;-59
2021/06/23 11:38:41;;;;;;;13.85;10.20;;;;;;;50.81;14.39;99881.28;4819824;29;20106;-60
2021/06/23 11:41:08;;;;;;;14.15;9.50;;;;;;;50.72;14.19;99882.31;4821803;29;20082;-59
2021/06/23 11:43:34;;;;;;;18.80;9.95;;;;;;;50.42;14.01;99878.25;4821447;29;20532;-60
2021/06/23 11:45:59;;;;;;;17.70;9.60;;;;;;;50.51;14.47;99878.38;4809822;29;20035;-61
2021/06/23 11:48:25;;;;;;;22.37;14.13;;;;;;;50.70;14.74;99873.50;4801754;29;20038;-60
2021/06/23 11:50:52;;;;;;;19.77;15.13;;;;;;;50.84;14.94;99875.09;4818998;29;20081;-63
2021/06/23 11:53:19;;;;;;;20.00;12.57;;;;;;;50.87;15.13;99886.69;4821696;29;20086;-60
2021/06/23 11:55:47;;;;;;;21.58;10.15;;;;;;;50.68;14.47;99873.78;4818580;29;20050;-59
2021/06/23 11:58:13;;;;;;;17.27;9.93;;;;;;;50.43;14.57;99877.13;4817580;29;20058;-61
2021/06/23 12:00:43;;;;;;;18.93;10.73;;;;;;;50.47;14.79;99878.16;4818195;29;20091;-61
2021/06/23 12:03:17;;;;;;;21.38;11.55;;;;;;;50.36;14.81;99883.09;4799887;29;20141;-61
2021/06/23 12:05:43;;;;;;;18.90;11.32;;;;;;;50.39;14.91;99878.88;4818404;29;20166;-59